sensor_id;sensor_type;location;lat;lon;timestamp;P1;durP1;ratioP1;P2;durP2;ratioP2
75297;SDS011;63896;45.990;18.688;2022-10-14T00:01:10;25.47;;;12.97;;
75297;SDS011;63896;45.990;18.688;2022-10-14T00:04:15;24.48;;;13.25;;
75297;SDS011;63896;45.990;18.688;2022-10-14T00:07:18;29.75;;;13.98;;
75297;SDS011;63896;45.990;18.688;2022-10-14T00:10:21;24.23;;;13.38;;
75297;SDS011;63896;45.990;18.688;2022-10-14T00:13:24;24.35;;;12.88;;
75297;SDS011;63896;45.990;18.688;2022-10-14T00:16:31;25.40;;;12.93;;
75297;SDS011;63896;45.990;18.688;2022-10-14T00:19:36;25.05;;;13.35;;
75297;SDS011;63896;45.990;18.688;2022-10-14T00:22:39;23.98;;;13.77;;
75297;SDS011;63896;45.990;18.688;2022-10-14T00:25:41;23.10;;;12.85;;
75297;SDS011;63896;45.990;18.688;2022-10-14T00:28:44;28.25;;;13.35;;
75297;SDS011;63896;45.990;18.688;2022-10-14T00:31:47;23.93;;;13.20;;
75297;SDS011;63896;45.990;18.688;2022-10-14T00:34:50;23.30;;;13.13;;
75297;SDS011;63896;45.990;18.688;2022-10-14T00:37:53;25.45;;;13.02;;
75297;SDS011;63896;45.990;18.688;2022-10-14T00:40:56;22.80;;;12.38;;
75297;SDS011;63896;45.990;18.688;2022-10-14T00:47:14;22.73;;;12.93;;
75297;SDS011;63896;45.990;18.688;2022-10-14T00:50:17;23.85;;;12.88;;
75297;SDS011;63896;45.990;18.688;2022-10-14T00:53:22;21.50;;;11.63;;
75297;SDS011;63896;45.990;18.688;2022-10-14T00:56:27;25.77;;;13.20;;
75297;SDS011;63896;45.990;18.688;2022-10-14T00:59:33;25.50;;;13.35;;
75297;SDS011;63896;45.990;18.688;2022-10-14T01:02:37;24.70;;;12.77;;
75297;SDS011;63896;45.990;18.688;2022-10-14T01:05:43;23.85;;;12.93;;
75297;SDS011;63896;45.990;18.688;2022-10-14T01:08:58;24.08;;;13.70;;
75297;SDS011;63896;45.990;18.688;2022-10-14T01:19:27;24.27;;;12.87;;
75297;SDS011;63896;45.990;18.688;2022-10-14T01:22:40;22.70;;;12.70;;
75297;SDS011;63896;45.990;18.688;2022-10-14T01:26:15;25.00;;;13.20;;
75297;SDS011;63896;45.990;18.688;2022-10-14T01:32:49;26.30;;;13.68;;
75297;SDS011;63896;45.990;18.688;2022-10-14T01:39:16;27.10;;;13.15;;
75297;SDS011;63896;45.990;18.688;2022-10-14T01:42:24;26.33;;;13.10;;
75297;SDS011;63896;45.990;18.688;2022-10-14T01:45:31;23.95;;;13.10;;
75297;SDS011;63896;45.990;18.688;2022-10-14T01:48:38;21.65;;;13.15;;
75297;SDS011;63896;45.990;18.688;2022-10-14T01:51:53;28.40;;;14.23;;
75297;SDS011;63896;45.990;18.688;2022-10-14T01:55:02;27.42;;;13.95;;
75297;SDS011;63896;45.990;18.688;2022-10-14T01:58:08;27.38;;;13.45;;
75297;SDS011;63896;45.990;18.688;2022-10-14T02:01:13;23.90;;;14.05;;
75297;SDS011;63896;45.990;18.688;2022-10-14T02:04:19;24.73;;;13.82;;
75297;SDS011;63896;45.990;18.688;2022-10-14T02:07:25;27.07;;;13.80;;
75297;SDS011;63896;45.990;18.688;2022-10-14T02:17:24;29.33;;;13.75;;
75297;SDS011;63896;45.990;18.688;2022-10-14T02:20:31;29.35;;;14.40;;
75297;SDS011;63896;45.990;18.688;2022-10-14T02:23:51;29.37;;;14.77;;
75297;SDS011;63896;45.990;18.688;2022-10-14T02:27:10;27.10;;;15.05;;
75297;SDS011;63896;45.990;18.688;2022-10-14T02:30:16;29.50;;;15.27;;
75297;SDS011;63896;45.990;18.688;2022-10-14T02:33:27;29.13;;;15.38;;
75297;SDS011;63896;45.990;18.688;2022-10-14T02:36:35;33.85;;;16.08;;
75297;SDS011;63896;45.990;18.688;2022-10-14T02:39:41;32.10;;;16.10;;
75297;SDS011;63896;45.990;18.688;2022-10-14T02:42:47;30.27;;;16.13;;
75297;SDS011;63896;45.990;18.688;2022-10-14T02:45:54;27.77;;;15.00;;
75297;SDS011;63896;45.990;18.688;2022-10-14T02:48:59;29.88;;;15.73;;
75297;SDS011;63896;45.990;18.688;2022-10-14T02:52:03;31.88;;;16.02;;
75297;SDS011;63896;45.990;18.688;2022-10-14T02:55:06;28.40;;;15.57;;
75297;SDS011;63896;45.990;18.688;2022-10-14T02:58:09;30.05;;;15.82;;
75297;SDS011;63896;45.990;18.688;2022-10-14T03:01:11;29.67;;;15.65;;
75297;SDS011;63896;45.990;18.688;2022-10-14T03:04:14;33.33;;;15.48;;
75297;SDS011;63896;45.990;18.688;2022-10-14T03:07:17;28.58;;;16.05;;
75297;SDS011;63896;45.990;18.688;2022-10-14T03:10:24;27.57;;;15.53;;
75297;SDS011;63896;45.990;18.688;2022-10-14T03:13:28;31.45;;;15.35;;
75297;SDS011;63896;45.990;18.688;2022-10-14T03:16:31;30.15;;;15.30;;
75297;SDS011;63896;45.990;18.688;2022-10-14T03:19:34;30.60;;;16.08;;
75297;SDS011;63896;45.990;18.688;2022-10-14T03:22:37;28.85;;;15.57;;
75297;SDS011;63896;45.990;18.688;2022-10-14T03:25:42;30.93;;;16.17;;
75297;SDS011;63896;45.990;18.688;2022-10-14T03:28:53;29.42;;;15.38;;
75297;SDS011;63896;45.990;18.688;2022-10-14T03:32:02;32.78;;;15.70;;
75297;SDS011;63896;45.990;18.688;2022-10-14T03:35:27;28.65;;;15.77;;
75297;SDS011;63896;45.990;18.688;2022-10-14T03:38:31;30.20;;;16.20;;
75297;SDS011;63896;45.990;18.688;2022-10-14T03:41:36;31.87;;;16.57;;
75297;SDS011;63896;45.990;18.688;2022-10-14T03:44:40;32.65;;;16.08;;
75297;SDS011;63896;45.990;18.688;2022-10-14T03:47:50;32.15;;;16.95;;
75297;SDS011;63896;45.990;18.688;2022-10-14T03:50:53;31.15;;;16.10;;
75297;SDS011;63896;45.990;18.688;2022-10-14T03:53:56;31.20;;;16.70;;
75297;SDS011;63896;45.990;18.688;2022-10-14T03:57:03;30.37;;;15.97;;
75297;SDS011;63896;45.990;18.688;2022-10-14T04:00:14;27.90;;;15.32;;
75297;SDS011;63896;45.990;18.688;2022-10-14T04:03:17;31.60;;;15.70;;
75297;SDS011;63896;45.990;18.688;2022-10-14T04:06:20;33.80;;;17.20;;
75297;SDS011;63896;45.990;18.688;2022-10-14T04:09:27;31.27;;;16.45;;
75297;SDS011;63896;45.990;18.688;2022-10-14T04:12:30;31.87;;;16.87;;
75297;SDS011;63896;45.990;18.688;2022-10-14T04:15:44;29.60;;;15.93;;
75297;SDS011;63896;45.990;18.688;2022-10-14T04:18:56;30.08;;;16.40;;
75297;SDS011;63896;45.990;18.688;2022-10-14T04:21:59;28.83;;;16.00;;
75297;SDS011;63896;45.990;18.688;2022-10-14T04:25:03;33.38;;;16.85;;
75297;SDS011;63896;45.990;18.688;2022-10-14T04:28:06;35.40;;;16.27;;
75297;SDS011;63896;45.990;18.688;2022-10-14T04:31:32;31.55;;;16.42;;
75297;SDS011;63896;45.990;18.688;2022-10-14T04:34:37;34.40;;;16.42;;
75297;SDS011;63896;45.990;18.688;2022-10-14T04:37:41;30.58;;;17.20;;
75297;SDS011;63896;45.990;18.688;2022-10-14T04:40:55;30.35;;;16.83;;
75297;SDS011;63896;45.990;18.688;2022-10-14T04:43:58;30.30;;;17.37;;
75297;SDS011;63896;45.990;18.688;2022-10-14T04:47:06;33.75;;;16.75;;
75297;SDS011;63896;45.990;18.688;2022-10-14T04:50:10;38.40;;;16.08;;
75297;SDS011;63896;45.990;18.688;2022-10-14T04:53:33;28.98;;;16.35;;
75297;SDS011;63896;45.990;18.688;2022-10-14T04:56:49;34.42;;;17.83;;
75297;SDS011;63896;45.990;18.688;2022-10-14T04:59:52;30.07;;;17.00;;
75297;SDS011;63896;45.990;18.688;2022-10-14T05:03:15;34.28;;;17.08;;
75297;SDS011;63896;45.990;18.688;2022-10-14T05:06:18;34.60;;;17.73;;
75297;SDS011;63896;45.990;18.688;2022-10-14T05:09:25;32.88;;;17.45;;
75297;SDS011;63896;45.990;18.688;2022-10-14T05:12:37;34.40;;;18.23;;
75297;SDS011;63896;45.990;18.688;2022-10-14T05:15:40;36.90;;;17.30;;
75297;SDS011;63896;45.990;18.688;2022-10-14T05:18:46;33.33;;;18.00;;
75297;SDS011;63896;45.990;18.688;2022-10-14T05:21:49;35.78;;;17.83;;
75297;SDS011;63896;45.990;18.688;2022-10-14T05:25:05;34.25;;;18.33;;
75297;SDS011;63896;45.990;18.688;2022-10-14T05:28:08;33.78;;;17.98;;
75297;SDS011;63896;45.990;18.688;2022-10-14T05:31:14;31.87;;;16.50;;
75297;SDS011;63896;45.990;18.688;2022-10-14T05:34:25;34.25;;;18.45;;
75297;SDS011;63896;45.990;18.688;2022-10-14T05:37:28;36.15;;;18.20;;
75297;SDS011;63896;45.990;18.688;2022-10-14T05:40:32;30.95;;;16.88;;
75297;SDS011;63896;45.990;18.688;2022-10-14T05:43:35;32.53;;;16.98;;
75297;SDS011;63896;45.990;18.688;2022-10-14T05:46:40;34.07;;;17.63;;
75297;SDS011;63896;45.990;18.688;2022-10-14T05:49:43;33.58;;;17.38;;
75297;SDS011;63896;45.990;18.688;2022-10-14T05:52:47;33.50;;;16.83;;
75297;SDS011;63896;45.990;18.688;2022-10-14T05:56:03;30.75;;;17.50;;
75297;SDS011;63896;45.990;18.688;2022-10-14T05:59:08;37.38;;;18.70;;
75297;SDS011;63896;45.990;18.688;2022-10-14T06:07:46;33.30;;;17.60;;
75297;SDS011;63896;45.990;18.688;2022-10-14T06:10:51;30.15;;;17.05;;
75297;SDS011;63896;45.990;18.688;2022-10-14T06:13:55;28.58;;;16.05;;
75297;SDS011;63896;45.990;18.688;2022-10-14T06:17:01;28.27;;;16.85;;
75297;SDS011;63896;45.990;18.688;2022-10-14T06:20:06;34.53;;;17.77;;
75297;SDS011;63896;45.990;18.688;2022-10-14T06:23:09;32.13;;;17.90;;
75297;SDS011;63896;45.990;18.688;2022-10-14T06:26:12;35.20;;;16.63;;
75297;SDS011;63896;45.990;18.688;2022-10-14T06:29:16;32.53;;;17.55;;
75297;SDS011;63896;45.990;18.688;2022-10-14T06:33:04;30.10;;;16.50;;
75297;SDS011;63896;45.990;18.688;2022-10-14T06:36:11;37.30;;;17.50;;
75297;SDS011;63896;45.990;18.688;2022-10-14T06:39:20;28.05;;;16.10;;
75297;SDS011;63896;45.990;18.688;2022-10-14T06:42:25;26.95;;;15.68;;
75297;SDS011;63896;45.990;18.688;2022-10-14T06:45:28;27.95;;;15.38;;
75297;SDS011;63896;45.990;18.688;2022-10-14T06:48:33;30.08;;;16.00;;
75297;SDS011;63896;45.990;18.688;2022-10-14T06:51:36;28.63;;;15.67;;
75297;SDS011;63896;45.990;18.688;2022-10-14T06:54:41;26.70;;;15.15;;
75297;SDS011;63896;45.990;18.688;2022-10-14T06:57:49;31.05;;;15.77;;
75297;SDS011;63896;45.990;18.688;2022-10-14T07:00:53;26.35;;;16.38;;
75297;SDS011;63896;45.990;18.688;2022-10-14T07:04:10;28.48;;;16.23;;
75297;SDS011;63896;45.990;18.688;2022-10-14T07:07:13;31.23;;;16.87;;
75297;SDS011;63896;45.990;18.688;2022-10-14T07:10:16;27.73;;;16.40;;
75297;SDS011;63896;45.990;18.688;2022-10-14T07:13:20;30.02;;;16.20;;
75297;SDS011;63896;45.990;18.688;2022-10-14T07:16:23;30.10;;;16.58;;
75297;SDS011;63896;45.990;18.688;2022-10-14T07:19:26;28.15;;;16.05;;
75297;SDS011;63896;45.990;18.688;2022-10-14T07:22:30;27.07;;;15.87;;
75297;SDS011;63896;45.990;18.688;2022-10-14T07:26:05;24.35;;;15.52;;
75297;SDS011;63896;45.990;18.688;2022-10-14T07:29:11;23.55;;;15.75;;
75297;SDS011;63896;45.990;18.688;2022-10-14T07:32:35;23.98;;;15.95;;
75297;SDS011;63896;45.990;18.688;2022-10-14T07:35:38;25.50;;;14.98;;
75297;SDS011;63896;45.990;18.688;2022-10-14T07:38:41;24.43;;;15.57;;
75297;SDS011;63896;45.990;18.688;2022-10-14T07:41:44;26.25;;;15.70;;
75297;SDS011;63896;45.990;18.688;2022-10-14T07:44:49;21.23;;;15.32;;
75297;SDS011;63896;45.990;18.688;2022-10-14T07:47:52;21.23;;;14.60;;
75297;SDS011;63896;45.990;18.688;2022-10-14T07:50:55;24.65;;;14.40;;
75297;SDS011;63896;45.990;18.688;2022-10-14T07:54:07;22.37;;;14.50;;
75297;SDS011;63896;45.990;18.688;2022-10-14T07:57:13;21.13;;;14.82;;
75297;SDS011;63896;45.990;18.688;2022-10-14T08:00:20;24.55;;;15.82;;
75297;SDS011;63896;45.990;18.688;2022-10-14T08:03:23;22.88;;;15.65;;
75297;SDS011;63896;45.990;18.688;2022-10-14T08:06:29;25.55;;;14.77;;
75297;SDS011;63896;45.990;18.688;2022-10-14T08:09:33;24.87;;;14.93;;
75297;SDS011;63896;45.990;18.688;2022-10-14T08:12:38;25.33;;;14.68;;
75297;SDS011;63896;45.990;18.688;2022-10-14T08:15:48;31.83;;;16.00;;
75297;SDS011;63896;45.990;18.688;2022-10-14T08:18:57;23.40;;;15.95;;
75297;SDS011;63896;45.990;18.688;2022-10-14T08:22:02;27.00;;;15.27;;
75297;SDS011;63896;45.990;18.688;2022-10-14T08:25:07;24.10;;;15.17;;
75297;SDS011;63896;45.990;18.688;2022-10-14T08:28:10;20.83;;;14.55;;
75297;SDS011;63896;45.990;18.688;2022-10-14T08:31:13;18.75;;;13.65;;
75297;SDS011;63896;45.990;18.688;2022-10-14T08:34:17;21.60;;;14.63;;
75297;SDS011;63896;45.990;18.688;2022-10-14T08:37:23;17.90;;;13.60;;
75297;SDS011;63896;45.990;18.688;2022-10-14T08:40:29;23.23;;;13.73;;
75297;SDS011;63896;45.990;18.688;2022-10-14T08:47:36;22.70;;;14.57;;
75297;SDS011;63896;45.990;18.688;2022-10-14T08:50:48;17.98;;;13.65;;
75297;SDS011;63896;45.990;18.688;2022-10-14T08:53:58;19.85;;;13.60;;
75297;SDS011;63896;45.990;18.688;2022-10-14T08:57:11;20.57;;;14.90;;
75297;SDS011;63896;45.990;18.688;2022-10-14T09:00:22;20.63;;;14.35;;
75297;SDS011;63896;45.990;18.688;2022-10-14T09:03:26;20.25;;;14.25;;
75297;SDS011;63896;45.990;18.688;2022-10-14T09:06:35;23.15;;;14.45;;
75297;SDS011;63896;45.990;18.688;2022-10-14T09:09:45;22.92;;;13.85;;
75297;SDS011;63896;45.990;18.688;2022-10-14T09:12:51;16.53;;;12.83;;
75297;SDS011;63896;45.990;18.688;2022-10-14T09:16:02;19.83;;;12.77;;
75297;SDS011;63896;45.990;18.688;2022-10-14T09:19:17;17.08;;;12.00;;
75297;SDS011;63896;45.990;18.688;2022-10-14T09:22:31;20.13;;;12.00;;
75297;SDS011;63896;45.990;18.688;2022-10-14T09:25:34;14.60;;;11.40;;
75297;SDS011;63896;45.990;18.688;2022-10-14T09:28:42;18.77;;;11.53;;
75297;SDS011;63896;45.990;18.688;2022-10-14T09:31:47;18.05;;;11.30;;
75297;SDS011;63896;45.990;18.688;2022-10-14T09:34:50;14.77;;;10.20;;
75297;SDS011;63896;45.990;18.688;2022-10-14T09:37:54;15.30;;;11.35;;
75297;SDS011;63896;45.990;18.688;2022-10-14T09:41:06;20.98;;;11.38;;
75297;SDS011;63896;45.990;18.688;2022-10-14T09:44:14;18.63;;;10.47;;
75297;SDS011;63896;45.990;18.688;2022-10-14T09:47:23;20.25;;;10.48;;
75297;SDS011;63896;45.990;18.688;2022-10-14T09:56:46;15.48;;;11.15;;
75297;SDS011;63896;45.990;18.688;2022-10-14T09:59:54;18.60;;;11.10;;
75297;SDS011;63896;45.990;18.688;2022-10-14T10:03:01;15.93;;;9.90;;
75297;SDS011;63896;45.990;18.688;2022-10-14T10:06:09;17.98;;;10.88;;
75297;SDS011;63896;45.990;18.688;2022-10-14T10:09:16;16.40;;;10.50;;
75297;SDS011;63896;45.990;18.688;2022-10-14T10:12:31;14.98;;;10.88;;
75297;SDS011;63896;45.990;18.688;2022-10-14T10:15:36;14.63;;;10.37;;
75297;SDS011;63896;45.990;18.688;2022-10-14T10:22:32;13.18;;;10.48;;
75297;SDS011;63896;45.990;18.688;2022-10-14T10:25:38;18.13;;;10.63;;
75297;SDS011;63896;45.990;18.688;2022-10-14T10:28:45;13.30;;;10.85;;
75297;SDS011;63896;45.990;18.688;2022-10-14T10:32:11;16.73;;;11.37;;
75297;SDS011;63896;45.990;18.688;2022-10-14T10:38:38;19.25;;;10.63;;
75297;SDS011;63896;45.990;18.688;2022-10-14T10:48:44;12.53;;;9.20;;
75297;SDS011;63896;45.990;18.688;2022-10-14T10:55:29;13.60;;;9.20;;
75297;SDS011;63896;45.990;18.688;2022-10-14T11:06:26;12.13;;;9.70;;
75297;SDS011;63896;45.990;18.688;2022-10-14T11:22:53;20.95;;;10.30;;
75297;SDS011;63896;45.990;18.688;2022-10-14T11:33:55;13.80;;;9.52;;
75297;SDS011;63896;45.990;18.688;2022-10-14T11:37:20;16.38;;;9.60;;
75297;SDS011;63896;45.990;18.688;2022-10-14T11:47:39;14.35;;;10.18;;
75297;SDS011;63896;45.990;18.688;2022-10-14T11:50:46;16.67;;;10.23;;
75297;SDS011;63896;45.990;18.688;2022-10-14T11:57:37;17.25;;;9.40;;
75297;SDS011;63896;45.990;18.688;2022-10-14T12:00:46;12.57;;;9.83;;
75297;SDS011;63896;45.990;18.688;2022-10-14T12:03:57;12.77;;;9.25;;
75297;SDS011;63896;45.990;18.688;2022-10-14T12:07:05;13.15;;;9.40;;
75297;SDS011;63896;45.990;18.688;2022-10-14T12:10:23;11.80;;;8.50;;
75297;SDS011;63896;45.990;18.688;2022-10-14T12:17:34;10.63;;;8.03;;
75297;SDS011;63896;45.990;18.688;2022-10-14T12:20:53;12.65;;;8.18;;
75297;SDS011;63896;45.990;18.688;2022-10-14T12:29:36;12.40;;;7.88;;
75297;SDS011;63896;45.990;18.688;2022-10-14T12:33:04;12.38;;;7.70;;
75297;SDS011;63896;45.990;18.688;2022-10-14T12:36:31;10.50;;;7.93;;
75297;SDS011;63896;45.990;18.688;2022-10-14T12:39:40;11.98;;;8.27;;
75297;SDS011;63896;45.990;18.688;2022-10-14T12:45:56;13.93;;;8.68;;
75297;SDS011;63896;45.990;18.688;2022-10-14T12:49:00;13.63;;;8.02;;
75297;SDS011;63896;45.990;18.688;2022-10-14T12:57:05;12.63;;;7.78;;
75297;SDS011;63896;45.990;18.688;2022-10-14T13:00:53;14.43;;;8.43;;
75297;SDS011;63896;45.990;18.688;2022-10-14T13:04:15;14.40;;;8.20;;
75297;SDS011;63896;45.990;18.688;2022-10-14T13:13:59;13.65;;;7.25;;
75297;SDS011;63896;45.990;18.688;2022-10-14T13:17:26;11.98;;;7.90;;
75297;SDS011;63896;45.990;18.688;2022-10-14T13:23:43;13.80;;;7.72;;
75297;SDS011;63896;45.990;18.688;2022-10-14T13:30:02;14.32;;;7.78;;
75297;SDS011;63896;45.990;18.688;2022-10-14T13:36:17;12.88;;;8.32;;
75297;SDS011;63896;45.990;18.688;2022-10-14T13:39:32;11.43;;;8.27;;
75297;SDS011;63896;45.990;18.688;2022-10-14T13:42:36;12.67;;;8.03;;
75297;SDS011;63896;45.990;18.688;2022-10-14T13:45:42;14.38;;;8.05;;
75297;SDS011;63896;45.990;18.688;2022-10-14T13:48:47;13.90;;;7.50;;
75297;SDS011;63896;45.990;18.688;2022-10-14T13:51:57;13.25;;;8.23;;
75297;SDS011;63896;45.990;18.688;2022-10-14T13:55:13;12.98;;;7.28;;
75297;SDS011;63896;45.990;18.688;2022-10-14T13:58:22;11.47;;;7.20;;
75297;SDS011;63896;45.990;18.688;2022-10-14T14:01:30;12.15;;;7.68;;
75297;SDS011;63896;45.990;18.688;2022-10-14T14:04:37;16.45;;;7.78;;
75297;SDS011;63896;45.990;18.688;2022-10-14T14:07:41;12.45;;;7.65;;
75297;SDS011;63896;45.990;18.688;2022-10-14T14:11:06;10.32;;;7.65;;
75297;SDS011;63896;45.990;18.688;2022-10-14T14:14:20;12.90;;;7.47;;
75297;SDS011;63896;45.990;18.688;2022-10-14T14:17:27;14.88;;;7.72;;
75297;SDS011;63896;45.990;18.688;2022-10-14T14:20:34;12.40;;;7.47;;
75297;SDS011;63896;45.990;18.688;2022-10-14T14:23:53;11.38;;;7.45;;
75297;SDS011;63896;45.990;18.688;2022-10-14T14:27:00;10.32;;;7.90;;
75297;SDS011;63896;45.990;18.688;2022-10-14T14:30:11;13.30;;;7.80;;
75297;SDS011;63896;45.990;18.688;2022-10-14T14:33:27;15.13;;;8.18;;
75297;SDS011;63896;45.990;18.688;2022-10-14T14:36:31;13.77;;;7.63;;
75297;SDS011;63896;45.990;18.688;2022-10-14T14:39:55;16.48;;;10.35;;
75297;SDS011;63896;45.990;18.688;2022-10-14T14:43:03;15.98;;;8.85;;
75297;SDS011;63896;45.990;18.688;2022-10-14T14:46:07;16.03;;;8.20;;
75297;SDS011;63896;45.990;18.688;2022-10-14T14:49:21;18.60;;;8.85;;
75297;SDS011;63896;45.990;18.688;2022-10-14T14:52:28;14.05;;;8.32;;
75297;SDS011;63896;45.990;18.688;2022-10-14T14:58:48;14.13;;;9.05;;
75297;SDS011;63896;45.990;18.688;2022-10-14T15:01:55;13.73;;;8.30;;
75297;SDS011;63896;45.990;18.688;2022-10-14T15:05:07;20.70;;;10.10;;
75297;SDS011;63896;45.990;18.688;2022-10-14T15:08:14;15.63;;;10.20;;
75297;SDS011;63896;45.990;18.688;2022-10-14T15:11:24;20.20;;;9.05;;
75297;SDS011;63896;45.990;18.688;2022-10-14T15:14:29;18.70;;;9.35;;
75297;SDS011;63896;45.990;18.688;2022-10-14T15:21:17;20.73;;;9.73;;
75297;SDS011;63896;45.990;18.688;2022-10-14T15:24:20;24.48;;;11.20;;
75297;SDS011;63896;45.990;18.688;2022-10-14T15:30:33;18.73;;;9.80;;
75297;SDS011;63896;45.990;18.688;2022-10-14T15:33:54;19.53;;;8.70;;
75297;SDS011;63896;45.990;18.688;2022-10-14T15:36:57;12.55;;;8.55;;
75297;SDS011;63896;45.990;18.688;2022-10-14T15:40:01;15.20;;;9.45;;
75297;SDS011;63896;45.990;18.688;2022-10-14T15:43:10;18.83;;;10.10;;
75297;SDS011;63896;45.990;18.688;2022-10-14T15:46:20;18.13;;;10.57;;
75297;SDS011;63896;45.990;18.688;2022-10-14T15:49:42;17.63;;;11.37;;
75297;SDS011;63896;45.990;18.688;2022-10-14T15:52:46;20.70;;;14.35;;
75297;SDS011;63896;45.990;18.688;2022-10-14T15:55:48;22.67;;;11.57;;
75297;SDS011;63896;45.990;18.688;2022-10-14T15:58:54;19.90;;;11.25;;
75297;SDS011;63896;45.990;18.688;2022-10-14T16:01:57;19.83;;;12.15;;
75297;SDS011;63896;45.990;18.688;2022-10-14T16:05:00;28.13;;;13.90;;
75297;SDS011;63896;45.990;18.688;2022-10-14T16:08:23;31.10;;;17.65;;
75297;SDS011;63896;45.990;18.688;2022-10-14T16:11:27;29.30;;;18.45;;
75297;SDS011;63896;45.990;18.688;2022-10-14T16:14:31;37.45;;;21.10;;
75297;SDS011;63896;45.990;18.688;2022-10-14T16:17:35;42.05;;;24.42;;
75297;SDS011;63896;45.990;18.688;2022-10-14T16:20:37;41.73;;;24.37;;
75297;SDS011;63896;45.990;18.688;2022-10-14T16:23:40;48.85;;;30.52;;
75297;SDS011;63896;45.990;18.688;2022-10-14T16:26:45;31.38;;;19.50;;
75297;SDS011;63896;45.990;18.688;2022-10-14T16:29:56;29.70;;;17.52;;
75297;SDS011;63896;45.990;18.688;2022-10-14T16:32:59;34.95;;;19.48;;
75297;SDS011;63896;45.990;18.688;2022-10-14T16:36:02;26.60;;;16.27;;
75297;SDS011;63896;45.990;18.688;2022-10-14T16:39:08;30.80;;;15.02;;
75297;SDS011;63896;45.990;18.688;2022-10-14T16:42:12;19.58;;;11.73;;
75297;SDS011;63896;45.990;18.688;2022-10-14T16:45:15;22.10;;;10.63;;
75297;SDS011;63896;45.990;18.688;2022-10-14T16:48:18;24.23;;;11.15;;
75297;SDS011;63896;45.990;18.688;2022-10-14T16:51:21;25.67;;;12.50;;
75297;SDS011;63896;45.990;18.688;2022-10-14T16:54:24;20.77;;;11.93;;
75297;SDS011;63896;45.990;18.688;2022-10-14T16:57:27;30.75;;;15.10;;
75297;SDS011;63896;45.990;18.688;2022-10-14T17:00:29;40.50;;;16.50;;
75297;SDS011;63896;45.990;18.688;2022-10-14T17:03:33;41.88;;;18.33;;
75297;SDS011;63896;45.990;18.688;2022-10-14T17:06:35;30.50;;;14.43;;
75297;SDS011;63896;45.990;18.688;2022-10-14T17:09:38;24.73;;;13.35;;
75297;SDS011;63896;45.990;18.688;2022-10-14T17:12:43;19.40;;;9.77;;
75297;SDS011;63896;45.990;18.688;2022-10-14T17:15:46;17.63;;;8.05;;
75297;SDS011;63896;45.990;18.688;2022-10-14T17:18:49;20.02;;;8.48;;
75297;SDS011;63896;45.990;18.688;2022-10-14T17:21:52;15.43;;;7.67;;
75297;SDS011;63896;45.990;18.688;2022-10-14T17:24:55;13.80;;;7.53;;
75297;SDS011;63896;45.990;18.688;2022-10-14T17:27:58;12.65;;;8.05;;
75297;SDS011;63896;45.990;18.688;2022-10-14T17:31:01;17.60;;;9.15;;
75297;SDS011;63896;45.990;18.688;2022-10-14T17:34:03;18.10;;;8.52;;
75297;SDS011;63896;45.990;18.688;2022-10-14T17:37:06;13.47;;;8.27;;
75297;SDS011;63896;45.990;18.688;2022-10-14T17:40:10;15.45;;;8.85;;
75297;SDS011;63896;45.990;18.688;2022-10-14T17:43:13;19.77;;;9.85;;
75297;SDS011;63896;45.990;18.688;2022-10-14T17:46:17;14.23;;;8.90;;
75297;SDS011;63896;45.990;18.688;2022-10-14T17:49:22;17.35;;;9.23;;
75297;SDS011;63896;45.990;18.688;2022-10-14T17:52:25;19.40;;;8.83;;
75297;SDS011;63896;45.990;18.688;2022-10-14T17:55:28;17.52;;;7.75;;
75297;SDS011;63896;45.990;18.688;2022-10-14T17:58:31;15.02;;;7.78;;
75297;SDS011;63896;45.990;18.688;2022-10-14T18:01:34;14.93;;;8.60;;
75297;SDS011;63896;45.990;18.688;2022-10-14T18:04:57;19.75;;;7.80;;
75297;SDS011;63896;45.990;18.688;2022-10-14T18:08:00;13.87;;;8.20;;
75297;SDS011;63896;45.990;18.688;2022-10-14T18:11:03;16.67;;;8.38;;
75297;SDS011;63896;45.990;18.688;2022-10-14T18:14:12;17.85;;;8.25;;
75297;SDS011;63896;45.990;18.688;2022-10-14T18:17:15;18.60;;;8.57;;
75297;SDS011;63896;45.990;18.688;2022-10-14T18:20:18;19.30;;;8.32;;
75297;SDS011;63896;45.990;18.688;2022-10-14T18:23:26;16.57;;;8.97;;
75297;SDS011;63896;45.990;18.688;2022-10-14T18:26:30;17.60;;;10.35;;
75297;SDS011;63896;45.990;18.688;2022-10-14T18:29:33;20.30;;;9.45;;
75297;SDS011;63896;45.990;18.688;2022-10-14T18:32:36;24.80;;;9.63;;
75297;SDS011;63896;45.990;18.688;2022-10-14T18:35:39;21.27;;;9.77;;
75297;SDS011;63896;45.990;18.688;2022-10-14T18:38:48;20.47;;;9.87;;
75297;SDS011;63896;45.990;18.688;2022-10-14T18:41:55;23.25;;;10.93;;
75297;SDS011;63896;45.990;18.688;2022-10-14T18:44:58;22.50;;;10.35;;
75297;SDS011;63896;45.990;18.688;2022-10-14T18:48:00;30.17;;;11.13;;
75297;SDS011;63896;45.990;18.688;2022-10-14T18:51:04;26.95;;;12.77;;
75297;SDS011;63896;45.990;18.688;2022-10-14T18:54:10;27.53;;;16.07;;
75297;SDS011;63896;45.990;18.688;2022-10-14T18:57:19;29.95;;;15.93;;
75297;SDS011;63896;45.990;18.688;2022-10-14T19:00:22;26.73;;;15.38;;
75297;SDS011;63896;45.990;18.688;2022-10-14T19:03:28;27.08;;;15.25;;
75297;SDS011;63896;45.990;18.688;2022-10-14T19:06:31;24.70;;;14.32;;
75297;SDS011;63896;45.990;18.688;2022-10-14T19:09:35;25.50;;;14.20;;
75297;SDS011;63896;45.990;18.688;2022-10-14T19:12:38;21.92;;;12.95;;
75297;SDS011;63896;45.990;18.688;2022-10-14T19:15:43;24.25;;;11.52;;
75297;SDS011;63896;45.990;18.688;2022-10-14T19:18:56;30.27;;;12.73;;
75297;SDS011;63896;45.990;18.688;2022-10-14T19:22:00;21.75;;;11.02;;
75297;SDS011;63896;45.990;18.688;2022-10-14T19:25:03;18.13;;;11.67;;
75297;SDS011;63896;45.990;18.688;2022-10-14T19:28:06;23.13;;;12.13;;
75297;SDS011;63896;45.990;18.688;2022-10-14T19:31:21;25.85;;;13.40;;
75297;SDS011;63896;45.990;18.688;2022-10-14T19:34:28;23.17;;;12.25;;
75297;SDS011;63896;45.990;18.688;2022-10-14T19:37:31;27.38;;;13.45;;
75297;SDS011;63896;45.990;18.688;2022-10-14T19:40:34;25.60;;;13.87;;
75297;SDS011;63896;45.990;18.688;2022-10-14T19:43:37;23.23;;;13.80;;
75297;SDS011;63896;45.990;18.688;2022-10-14T19:46:40;28.50;;;13.95;;
75297;SDS011;63896;45.990;18.688;2022-10-14T19:49:44;26.02;;;13.95;;
75297;SDS011;63896;45.990;18.688;2022-10-14T19:52:46;25.35;;;13.90;;
75297;SDS011;63896;45.990;18.688;2022-10-14T19:55:49;26.57;;;13.83;;
75297;SDS011;63896;45.990;18.688;2022-10-14T19:58:54;29.05;;;14.43;;
75297;SDS011;63896;45.990;18.688;2022-10-14T20:01:58;31.08;;;13.90;;
75297;SDS011;63896;45.990;18.688;2022-10-14T20:05:00;23.30;;;13.25;;
75297;SDS011;63896;45.990;18.688;2022-10-14T20:08:03;25.70;;;13.68;;
75297;SDS011;63896;45.990;18.688;2022-10-14T20:11:07;31.13;;;16.23;;
75297;SDS011;63896;45.990;18.688;2022-10-14T20:14:11;32.60;;;17.30;;
75297;SDS011;63896;45.990;18.688;2022-10-14T20:17:15;32.83;;;17.90;;
75297;SDS011;63896;45.990;18.688;2022-10-14T20:20:18;34.85;;;19.92;;
75297;SDS011;63896;45.990;18.688;2022-10-14T20:23:21;42.90;;;22.33;;